Current Conditions - Area Ports

 

CYWH - Victoria Harbour, British Columbia, Canada
Distance from station: WSW 10km
Updated: 02/23/2018 6:00pm
Light snow grains, Overcast
Light snow grains, Overcast
 Wind from E
Wind: E 7 km/h
Temperature: 3°C
Wind Chill: 1°C
Dew Point: 1°C
Humidity: 87%
Barometer: 1020.3 hPa
Summary: Light Snow Grains
Clouds: Overcast
Visibility: 16 km
Cloud details: Mostly cloudy 396 m
Overcast 1524 m
2018/02/24 02:00 CYWH 240200Z 10004KT 040V120 10SM -SG BKN013 OVC050 03/01 A3013 RMK SC6SC2 SLP205
KFHR - Friday Harbor, Washington, USA
Distance from station: ENE 19km
Updated: 02/23/2018 5:53pm
Overcast
Overcast
 Wind from SE
Wind: SE 31 km/h, Gust: 46 km/h
Temperature: 2°C
Wind Chill: -4°C
Dew Point: -1°C
Humidity: 81%
Barometer: 1021.3 hPa
Clouds: Overcast
Visibility: 16 km
Cloud details: Mostly cloudy 457 m
Overcast 671 m
2018/02/24 01:53 KFHR 240153Z AUTO 13017G25KT 10SM UP BKN015 OVC022 02/M01 A3016 RMK AO2 UPB44 SLP215 P0000 T00171011
 
KORS - Eastsound/Orcas, Washington, USA
Distance from station: NE 38km
Updated: 02/23/2018 5:55pm
Overcast
Overcast
 Wind from S
Wind: S 22 km/h, Gust: 44 km/h
Temperature: 2°C
Wind Chill: -3°C
Dew Point: -2°C
Humidity: 75%
Barometer: 1020.3 hPa
Clouds: Overcast
Visibility: 16 km
Cloud details: Few Clouds 1280 m
Partly cloudy 1433 m
Overcast 1676 m
2018/02/24 01:55 KORS 240155Z AUTO 17012G24KT 10SM FEW042 SCT047 OVC055 02/M02 A3013 RMK AO2
KNUW - Whidbey Is. Nas, Washington, USA
Distance from station: ESE 47km
Updated: 02/23/2018 5:56pm
Light snow, Overcast
Light snow, Overcast
 Wind from SSE
Wind: SSE 43 km/h, Gust: 65 km/h
Temperature: 3°C
Wind Chill: -4°C
Dew Point: -1°C
Humidity: 75%
Barometer: 1022.7 hPa
Summary: Light Snow
Clouds: Overcast
Visibility: 6 km
Cloud details: Mostly cloudy 762 m
Mostly cloudy 1067 m
Overcast 1524 m
2018/02/24 01:56 KNUW 240156Z 15023G35KT 4SM -SN BKN025 BKN035 OVC050 03/M01 A3020 RMK AO2 PK WND 15035/0148 RAB03E19SNB32 SLP225 P0000 T00281011 $
 
CWEZ - Saturna Isl (map, British Columbia, Canada
Distance from station: NNE 40km
Updated: 02/23/2018 5:00pm

 Wind from SSE
Wind: SSE 33 km/h, Gust: 44 km/h
Temperature: 3°C
Wind Chill: -3°C
Dew Point: -2°C
Humidity: 70%
2018/02/24 01:00 CWEZ 240100Z AUTO 16018G24KT 03/M02 RMK AO1 PK WND 16026/0006 SLP210 T00251016 56022
CYCD - Nanaimo Airport, British Columbia, Canada
Distance from station: NW 80km
Updated: 02/23/2018 6:00pm
Overcast
Overcast
 Wind from ESE
Wind: ESE 6 km/h
Temperature: 1°C
Dew Point: 0°C
Humidity: 93%
Barometer: 1020.3 hPa
Clouds: Overcast
Visibility: 19 km
Cloud details: Mostly cloudy 457 m
Overcast 975 m
2018/02/24 02:00 CYCD 240200Z 12003KT 070V140 12SM BKN015 OVC032 01/00 A3013 RMK SC6SC2 SLP207
 
CWVF - Sand Heads (ls), British Columbia, Canada
Distance from station: N 72km
Updated: 02/23/2018 6:00pm

 Wind from E
Wind: E 35 km/h
Temperature: 0°C
Wind Chill: -7°C
Dew Point: -2°C
Humidity: 87%
2018/02/24 02:00 CWVF 240200Z AUTO 08019KT M00/M02 RMK AO1 PK WND 08023/0135 T10011023
CWQK - Race Rocks Autob, British Columbia, Canada
Distance from station: SW 26km
Updated: 02/23/2018 6:00pm

 Wind from N
Wind: N 13 km/h
Temperature: 2°C
Wind Chill: -1°C
Dew Point: 1°C
Humidity: 93%
2018/02/24 02:00 CWQK 240200Z AUTO 35007KT 02/01 RMK AO1 SLP204 T00200014 56010
 
CWSP - Sheringham Autob, British Columbia, Canada
Distance from station: W 49km
Updated: 02/23/2018 6:00pm

 Wind from NW
Wind: NW 4 km/h
Temperature: 2°C
Dew Point: 2°C
Humidity: 100%
2018/02/24 02:00 CWSP 240200Z AUTO 31002KT 02/02 RMK AO1 6PAST HR 6013 SLP207 P0002 T00200017 50008